createdAt,value
2019-05-05T00:01:39.488Z,5.30
2019-05-05T00:04:36.750Z,5.37
2019-05-05T00:07:05.960Z,5.90
2019-05-05T00:09:34.913Z,6.60
2019-05-05T00:12:21.828Z,7.08
2019-05-05T00:15:02.302Z,5.25
2019-05-05T00:17:31.715Z,5.20
2019-05-05T00:20:00.378Z,5.12
2019-05-05T00:22:29.061Z,6.10
2019-05-05T00:24:57.725Z,6.30
2019-05-05T00:27:26.483Z,6.08
2019-05-05T00:29:55.181Z,6.70
2019-05-05T00:32:24.535Z,6.45
2019-05-05T00:34:55.163Z,5.50
2019-05-05T00:37:25.675Z,6.03
2019-05-05T00:39:54.636Z,6.70
2019-05-05T00:42:24.774Z,6.37
2019-05-05T00:44:54.898Z,6.65
2019-05-05T00:47:54.843Z,7.03
2019-05-05T00:50:25.259Z,7.50
2019-05-05T00:52:55.098Z,6.67
2019-05-05T00:55:24.467Z,7.20
2019-05-05T00:57:54.848Z,8.23
2019-05-05T01:00:39.202Z,7.83
2019-05-05T01:03:08.032Z,8.35
2019-05-05T01:05:44.900Z,6.83
2019-05-05T01:08:17.209Z,9.08
2019-05-05T01:10:45.884Z,8.10
2019-05-05T01:13:15.220Z,9.05
2019-05-05T01:15:44.843Z,9.33
2019-05-05T01:18:15.254Z,10.30
2019-05-05T01:20:44.906Z,9.90
2019-05-05T01:23:15.012Z,9.38
2019-05-05T01:25:46.119Z,10.10
2019-05-05T01:28:14.529Z,9.90
2019-05-05T01:30:45.429Z,12.35
2019-05-05T01:33:20.446Z,9.55
2019-05-05T01:35:49.123Z,11.45
2019-05-05T01:38:24.860Z,11.15
2019-05-05T01:41:05.824Z,10.75
2019-05-05T01:43:34.729Z,9.88
2019-05-05T01:46:05.027Z,10.03
2019-05-05T01:48:35.096Z,10.45
2019-05-05T01:51:05.011Z,11.35
2019-05-05T01:53:34.969Z,10.82
2019-05-05T01:56:04.853Z,11.83
2019-05-05T01:58:34.921Z,11.95
2019-05-05T02:01:04.990Z,13.95
2019-05-05T02:03:35.051Z,15.55
2019-05-05T02:06:05.269Z,18.35
2019-05-05T02:08:34.903Z,18.17
2019-05-05T02:11:05.169Z,14.05
2019-05-05T02:13:34.663Z,16.07
2019-05-05T02:16:04.596Z,13.95
2019-05-05T02:18:34.571Z,14.55
2019-05-05T02:21:06.158Z,12.20
2019-05-05T02:23:36.101Z,10.95
2019-05-05T02:26:05.985Z,14.58
2019-05-05T02:28:45.314Z,14.83
2019-05-05T02:31:25.519Z,13.15
2019-05-05T02:33:56.782Z,13.22
2019-05-05T02:36:25.784Z,17.55
2019-05-05T02:38:56.701Z,16.45
2019-05-05T02:41:25.651Z,16.57
2019-05-05T02:43:56.001Z,18.87
2019-05-05T02:46:44.755Z,17.73
2019-05-05T02:49:15.288Z,18.70
2019-05-05T02:51:45.287Z,17.65
2019-05-05T02:54:15.326Z,18.65
2019-05-05T02:56:46.826Z,19.00
2019-05-05T02:59:26.642Z,18.57
2019-05-05T03:02:09.129Z,19.37
2019-05-05T03:04:38.180Z,17.67
2019-05-05T03:07:09.243Z,17.10
2019-05-05T03:09:38.863Z,17.17
2019-05-05T03:12:11.100Z,18.57
2019-05-05T03:14:42.008Z,16.48
2019-05-05T03:17:14.298Z,20.12
2019-05-05T03:19:44.549Z,19.77
2019-05-05T03:22:14.358Z,18.25
2019-05-05T03:24:44.640Z,19.42
2019-05-05T03:27:14.447Z,20.32
2019-05-05T03:29:44.173Z,21.20
2019-05-05T03:32:16.024Z,19.15
2019-05-05T03:34:44.600Z,21.07
2019-05-05T03:37:14.646Z,19.80
2019-05-05T03:39:48.416Z,21.73
2019-05-05T03:42:33.850Z,18.95
2019-05-05T03:45:28.042Z,19.95
2019-05-05T03:47:57.412Z,19.77
2019-05-05T03:50:26.432Z,19.80
2019-05-05T03:52:55.386Z,20.65
2019-05-05T03:55:24.496Z,20.85
2019-05-05T03:57:53.849Z,21.65
2019-05-05T04:00:43.312Z,23.05
2019-05-05T04:03:12.098Z,22.40
2019-05-05T04:05:53.799Z,21.42
2019-05-05T04:08:23.482Z,21.48
2019-05-05T04:10:54.474Z,21.23
2019-05-05T04:13:24.293Z,22.25
2019-05-05T04:16:10.884Z,22.77
2019-05-05T04:18:48.679Z,20.00
2019-05-05T04:21:30.270Z,22.05
2019-05-05T04:23:47.760Z,21.90
2019-05-05T04:26:16.461Z,23.83
2019-05-05T04:28:45.124Z,22.52
2019-05-05T04:31:13.839Z,20.68
2019-05-05T04:33:44.460Z,21.00
2019-05-05T04:36:14.490Z,21.55
2019-05-05T04:38:43.951Z,22.07
2019-05-05T04:41:14.064Z,22.25
2019-05-05T04:43:44.202Z,22.22
2019-05-05T04:46:14.036Z,21.40
2019-05-05T04:48:48.815Z,21.57
2019-05-05T04:51:21.373Z,22.40
2019-05-05T04:54:27.282Z,20.62
2019-05-05T04:56:56.070Z,19.67
2019-05-05T04:59:24.814Z,19.95
2019-05-05T05:01:56.387Z,19.30
2019-05-05T05:04:48.624Z,20.65
2019-05-05T05:07:18.293Z,19.92
2019-05-05T05:09:46.965Z,22.48
2019-05-05T05:12:15.654Z,20.52
2019-05-05T05:14:44.314Z,19.42
2019-05-05T05:17:19.787Z,20.30
2019-05-05T05:19:48.671Z,18.95
2019-05-05T05:22:17.338Z,21.27
2019-05-05T05:24:46.020Z,18.67
2019-05-05T05:27:14.688Z,20.23
2019-05-05T05:29:43.793Z,15.65
2019-05-05T05:32:12.555Z,16.48
2019-05-05T05:34:41.221Z,16.40
2019-05-05T05:37:09.921Z,17.62
2019-05-05T05:39:47.560Z,14.23
2019-05-05T05:42:16.244Z,14.75
2019-05-05T05:44:53.562Z,13.65
2019-05-05T05:47:29.976Z,15.05
2019-05-05T05:50:17.683Z,14.75
2019-05-05T05:52:46.373Z,13.13
2019-05-05T05:55:15.086Z,13.70
2019-05-05T05:57:43.982Z,10.00
2019-05-05T06:00:14.515Z,9.70
2019-05-05T06:02:43.960Z,10.50
2019-05-05T06:05:14.782Z,11.53
2019-05-05T06:07:44.252Z,9.70
2019-05-05T06:10:23.697Z,8.10
2019-05-05T06:12:45.021Z,8.53
2019-05-05T06:15:14.336Z,8.98
2019-05-05T06:17:43.496Z,7.80
2019-05-05T06:20:14.405Z,8.00
2019-05-05T06:22:44.664Z,7.40
2019-05-05T06:25:15.969Z,7.33
2019-05-05T06:27:44.564Z,7.65
2019-05-05T06:30:13.888Z,7.10
2019-05-05T06:32:43.696Z,7.33
2019-05-05T06:35:13.853Z,7.50
2019-05-05T06:37:54.263Z,8.08
2019-05-05T06:40:31.101Z,8.10
2019-05-05T06:43:13.967Z,7.08
2019-05-05T06:45:47.648Z,8.18
2019-05-05T06:48:16.332Z,8.55
2019-05-05T06:50:44.989Z,7.62
2019-05-05T06:53:13.713Z,7.03
2019-05-05T06:55:44.313Z,6.87
2019-05-05T06:58:13.651Z,6.42
2019-05-05T07:00:44.089Z,6.40
2019-05-05T07:03:13.930Z,6.40
2019-05-05T07:05:43.688Z,5.92
2019-05-05T07:08:13.844Z,7.22
2019-05-05T07:10:44.437Z,7.60
2019-05-05T07:13:14.030Z,7.28
2019-05-05T07:15:43.759Z,7.42
2019-05-05T07:18:14.242Z,7.53
2019-05-05T07:20:44.078Z,6.22
2019-05-05T07:23:14.465Z,7.20
2019-05-05T07:25:45.859Z,6.42
2019-05-05T07:28:14.677Z,6.22
2019-05-05T07:30:44.230Z,5.78
2019-05-05T07:33:14.897Z,6.90
2019-05-05T07:35:56.763Z,6.10
2019-05-05T07:38:21.624Z,6.50
2019-05-05T07:40:50.283Z,5.58
2019-05-05T07:43:18.972Z,5.83
2019-05-05T07:45:47.632Z,6.30
2019-05-05T07:48:16.292Z,5.35
2019-05-05T07:50:58.150Z,5.12
2019-05-05T07:53:17.848Z,6.20
2019-05-05T07:55:45.783Z,5.47
2019-05-05T07:58:14.433Z,5.20
2019-05-05T08:00:43.776Z,5.42
2019-05-05T08:03:14.382Z,5.67
2019-05-05T08:05:44.198Z,5.67
2019-05-05T08:08:13.930Z,6.00
2019-05-05T08:10:43.762Z,5.65
2019-05-05T08:13:14.077Z,5.42
2019-05-05T08:15:56.824Z,5.03
2019-05-05T08:18:27.793Z,5.45
2019-05-05T08:20:58.958Z,5.37
2019-05-05T08:23:39.760Z,5.12
2019-05-05T08:26:14.288Z,5.40
2019-05-05T08:28:56.450Z,4.25
2019-05-05T08:31:44.337Z,4.30
2019-05-05T08:34:14.271Z,3.25
2019-05-05T08:36:44.648Z,3.90
2019-05-05T08:39:14.252Z,4.03
2019-05-05T08:41:45.336Z,3.25
2019-05-05T08:44:14.256Z,3.10
2019-05-05T08:46:44.594Z,3.27
2019-05-05T08:49:13.778Z,2.62
2019-05-05T08:51:44.275Z,2.30
2019-05-05T08:54:14.342Z,3.42
2019-05-05T08:56:44.754Z,3.27
2019-05-05T08:59:14.272Z,3.50
2019-05-05T09:01:44.868Z,2.58
2019-05-05T09:04:14.261Z,1.77
2019-05-05T09:06:43.712Z,1.98
2019-05-05T09:09:14.423Z,2.27
2019-05-05T09:11:43.774Z,1.90
2019-05-05T09:14:14.837Z,2.40
2019-05-05T09:16:44.787Z,3.10
2019-05-05T09:19:17.440Z,1.87
2019-05-05T09:21:46.184Z,2.77
2019-05-05T09:24:34.069Z,2.35
2019-05-05T09:27:20.997Z,2.80
2019-05-05T09:29:49.700Z,3.22
2019-05-05T09:32:18.374Z,2.92
2019-05-05T09:34:47.170Z,3.77
2019-05-05T09:37:15.830Z,3.17
2019-05-05T09:39:44.569Z,3.80
2019-05-05T09:42:14.476Z,3.55
2019-05-05T09:44:43.892Z,3.20
2019-05-05T09:47:13.685Z,2.75
2019-05-05T09:49:44.565Z,2.67
2019-05-05T09:52:13.950Z,3.15
2019-05-05T09:54:43.893Z,2.98
2019-05-05T09:57:14.554Z,2.75
2019-05-05T09:59:44.125Z,2.85
2019-05-05T10:02:13.102Z,3.67
2019-05-05T10:04:43.912Z,3.87
2019-05-05T10:07:13.707Z,4.53
2019-05-05T10:09:43.806Z,5.05
2019-05-05T10:12:12.652Z,4.25
2019-05-05T10:14:41.300Z,3.90
2019-05-05T10:17:09.987Z,3.52
2019-05-05T10:19:38.670Z,4.42
2019-05-05T10:22:07.374Z,4.62
2019-05-05T10:24:44.218Z,4.90
2019-05-05T10:27:12.456Z,4.33
2019-05-05T10:29:41.116Z,4.65
2019-05-05T10:32:09.819Z,3.67
2019-05-05T10:34:38.555Z,3.47
2019-05-05T10:37:07.293Z,4.03
2019-05-05T10:39:40.267Z,4.08
2019-05-05T10:42:08.941Z,3.95
2019-05-05T10:44:37.601Z,4.33
2019-05-05T10:47:06.296Z,2.70
2019-05-05T10:49:34.981Z,3.47
2019-05-05T10:52:03.953Z,3.08
2019-05-05T10:54:43.284Z,3.08
2019-05-05T10:57:04.036Z,3.22
2019-05-05T10:59:34.345Z,2.92
2019-05-05T11:02:05.011Z,3.00
2019-05-05T11:04:34.031Z,4.05
2019-05-05T11:07:04.176Z,3.35
2019-05-05T11:09:33.878Z,2.85
2019-05-05T11:12:02.569Z,2.75
2019-05-05T11:14:31.224Z,3.33
2019-05-05T11:17:00.065Z,2.67
2019-05-05T11:19:28.798Z,2.60
2019-05-05T11:21:57.486Z,2.92
2019-05-05T11:24:26.228Z,3.27
2019-05-05T11:26:54.900Z,2.67
2019-05-05T11:29:24.166Z,2.80
2019-05-05T11:31:53.279Z,2.95
2019-05-05T11:34:25.709Z,2.92
2019-05-05T11:37:01.112Z,3.20
2019-05-05T11:39:29.777Z,3.10
2019-05-05T11:41:58.577Z,3.58
2019-05-05T11:44:27.245Z,2.50
2019-05-05T11:46:55.932Z,2.85
2019-05-05T11:49:24.708Z,3.52
2019-05-05T11:51:54.225Z,3.30
2019-05-05T11:54:24.558Z,4.53
2019-05-05T11:56:54.054Z,3.65
2019-05-05T11:59:23.817Z,4.15
2019-05-05T12:01:55.035Z,3.17
2019-05-05T12:04:23.999Z,3.75
2019-05-05T12:06:52.850Z,3.80
2019-05-05T12:09:27.575Z,4.25
2019-05-05T12:11:56.242Z,3.12
2019-05-05T12:14:27.449Z,2.75
2019-05-05T12:16:56.141Z,3.45
2019-05-05T12:19:24.803Z,3.58
2019-05-05T12:21:54.807Z,3.20
2019-05-05T12:24:27.773Z,4.10
2019-05-05T12:27:18.691Z,3.75
2019-05-05T12:29:54.588Z,4.25
2019-05-05T12:32:24.117Z,3.87
2019-05-05T12:34:53.799Z,3.85
2019-05-05T12:37:23.680Z,4.28
2019-05-05T12:39:54.419Z,3.70
2019-05-05T12:42:24.195Z,4.50
2019-05-05T12:45:00.985Z,3.70
2019-05-05T12:47:46.854Z,4.25
2019-05-05T12:50:15.874Z,3.50
2019-05-05T12:52:44.540Z,4.45
2019-05-05T12:55:14.324Z,4.30
2019-05-05T12:57:43.592Z,4.12
2019-05-05T13:00:14.609Z,4.58
2019-05-05T13:02:44.212Z,4.90
2019-05-05T13:05:14.503Z,4.15
2019-05-05T13:07:44.159Z,4.17
2019-05-05T13:10:15.916Z,4.03
2019-05-05T13:12:44.608Z,4.35
2019-05-05T13:15:14.353Z,4.58
2019-05-05T13:17:43.794Z,3.95
2019-05-05T13:20:34.812Z,4.37
2019-05-05T13:23:28.576Z,3.90
2019-05-05T13:28:34.301Z,3.45
2019-05-05T13:31:04.700Z,4.17
2019-05-05T13:33:34.543Z,5.37
2019-05-05T13:36:04.336Z,5.40
2019-05-05T13:38:34.305Z,4.62
2019-05-05T13:41:03.810Z,5.40
2019-05-05T13:43:34.230Z,4.60
2019-05-05T13:46:24.561Z,5.12
2019-05-05T13:48:53.959Z,4.75
2019-05-05T13:51:24.039Z,4.67
2019-05-05T13:53:53.960Z,6.12
2019-05-05T13:56:24.494Z,5.08
2019-05-05T13:58:53.307Z,4.78
2019-05-05T14:01:23.748Z,6.28
2019-05-05T14:03:54.177Z,5.05
2019-05-05T14:06:24.266Z,5.97
2019-05-05T14:08:54.087Z,5.60
2019-05-05T14:11:24.710Z,5.00
2019-05-05T14:13:53.434Z,5.90
2019-05-05T14:16:22.126Z,5.42
2019-05-05T14:18:50.792Z,5.72
2019-05-05T14:21:19.476Z,5.15
2019-05-05T14:24:00.607Z,5.00
2019-05-05T14:26:32.122Z,4.92
2019-05-05T14:28:59.665Z,4.37
2019-05-05T14:31:33.812Z,3.98
2019-05-05T14:34:04.519Z,3.50
2019-05-05T14:36:48.033Z,3.65
2019-05-05T14:41:45.387Z,4.00
2019-05-05T14:44:14.152Z,3.70
2019-05-05T14:46:44.571Z,3.85
2019-05-05T14:49:14.079Z,4.20
2019-05-05T14:51:44.671Z,3.80
2019-05-05T14:54:14.847Z,5.08
2019-05-05T14:56:44.157Z,4.22
2019-05-05T14:59:14.195Z,3.55
2019-05-05T15:01:44.747Z,4.10
2019-05-05T15:04:15.242Z,4.60
2019-05-05T15:07:05.896Z,5.00
2019-05-05T15:09:49.742Z,5.37
2019-05-05T15:12:23.794Z,6.78
2019-05-05T15:14:54.641Z,5.70
2019-05-05T15:17:24.648Z,5.20
2019-05-05T15:19:54.108Z,5.72
2019-05-05T15:22:24.036Z,5.33
2019-05-05T15:24:53.659Z,5.37
2019-05-05T15:27:24.243Z,6.70
2019-05-05T15:29:54.264Z,5.90
2019-05-05T15:32:24.028Z,5.97
2019-05-05T15:34:54.537Z,4.95
2019-05-05T15:37:23.795Z,5.22
2019-05-05T15:39:53.635Z,5.62
2019-05-05T15:42:22.624Z,4.35
2019-05-05T15:44:51.289Z,4.58
2019-05-05T15:47:19.947Z,3.52
2019-05-05T15:49:48.658Z,2.80
2019-05-05T15:52:20.075Z,3.75
2019-05-05T15:54:47.788Z,3.77
2019-05-05T15:57:18.064Z,3.75
2019-05-05T15:59:47.048Z,3.77
2019-05-05T16:02:15.711Z,4.60
2019-05-05T16:04:44.380Z,4.12
2019-05-05T16:07:13.825Z,3.37
2019-05-05T16:09:44.384Z,3.45
2019-05-05T16:12:14.380Z,3.35
2019-05-05T16:14:54.344Z,3.55
2019-05-05T16:17:43.868Z,3.30
2019-05-05T16:20:16.673Z,3.20
2019-05-05T16:23:16.500Z,3.33
2019-05-05T16:25:46.642Z,4.37
2019-05-05T16:28:15.588Z,4.05
2019-05-05T16:30:44.611Z,5.97
2019-05-05T16:33:13.800Z,4.00
2019-05-05T16:35:43.750Z,3.95
2019-05-05T16:38:14.745Z,3.58
2019-05-05T16:40:44.443Z,3.90
2019-05-05T16:43:14.062Z,3.42
2019-05-05T16:45:44.438Z,4.65
2019-05-05T16:48:13.225Z,5.17
2019-05-05T16:50:44.073Z,3.85
2019-05-05T16:53:31.389Z,4.33
2019-05-05T16:56:00.164Z,4.55
2019-05-05T16:58:28.821Z,4.65
2019-05-05T17:00:57.488Z,5.00
2019-05-05T17:03:26.181Z,6.05
2019-05-05T17:05:56.624Z,5.22
2019-05-05T17:08:25.227Z,5.65
2019-05-05T17:10:54.008Z,5.35
2019-05-05T17:13:44.048Z,5.08
2019-05-05T17:16:21.935Z,5.67
2019-05-05T17:19:13.922Z,4.67
2019-05-05T17:22:00.518Z,4.62
2019-05-05T17:24:29.224Z,4.80
2019-05-05T17:26:57.973Z,5.40
2019-05-05T17:29:26.979Z,5.10
2019-05-05T17:31:55.656Z,4.95
2019-05-05T17:34:24.807Z,5.45
2019-05-05T17:36:53.709Z,6.00
2019-05-05T17:39:23.793Z,4.70
2019-05-05T17:42:14.677Z,5.25
2019-05-05T17:44:53.669Z,4.80
2019-05-05T17:47:27.039Z,5.35
2019-05-05T17:50:17.783Z,5.55
2019-05-05T17:53:03.108Z,6.45
2019-05-05T17:55:40.023Z,4.65
2019-05-05T17:58:08.717Z,5.47
2019-05-05T18:00:47.101Z,6.58
2019-05-05T18:03:15.960Z,5.58
2019-05-05T18:06:09.743Z,5.40
2019-05-05T18:11:16.928Z,6.10
2019-05-05T18:13:49.625Z,6.17
2019-05-05T18:16:19.487Z,4.92
2019-05-05T18:18:48.189Z,6.00
2019-05-05T18:21:16.848Z,5.70
2019-05-05T18:23:45.518Z,5.10
2019-05-05T18:26:14.211Z,5.62
2019-05-05T18:28:44.804Z,6.03
2019-05-05T18:31:13.881Z,6.50
2019-05-05T18:33:42.816Z,5.72
2019-05-05T18:36:11.485Z,6.05
2019-05-05T18:38:40.176Z,6.12
2019-05-05T18:41:20.368Z,6.85
2019-05-05T18:43:55.236Z,7.10
2019-05-05T18:46:24.449Z,5.70
2019-05-05T18:48:54.501Z,6.12
2019-05-05T18:51:24.137Z,5.85
2019-05-05T18:53:54.983Z,5.87
2019-05-05T18:56:23.793Z,6.78
2019-05-05T18:58:54.250Z,6.95
2019-05-05T19:01:34.041Z,5.85
2019-05-05T19:04:34.747Z,6.80
2019-05-05T19:07:14.503Z,7.28
2019-05-05T19:09:51.824Z,6.28
2019-05-05T19:12:13.897Z,5.97
2019-05-05T19:14:44.224Z,7.12
2019-05-05T19:17:14.182Z,6.15
2019-05-05T19:19:46.958Z,5.80
2019-05-05T19:22:15.825Z,6.35
2019-05-05T19:24:44.487Z,6.83
2019-05-05T19:27:14.170Z,6.33
2019-05-05T19:29:45.981Z,6.53
2019-05-05T19:32:13.458Z,5.30
2019-05-05T19:34:43.900Z,5.37
2019-05-05T19:37:13.967Z,6.35
2019-05-05T19:39:42.817Z,5.53
2019-05-05T19:42:11.472Z,5.90
2019-05-05T19:44:40.134Z,5.90
2019-05-05T19:47:17.978Z,7.03
2019-05-05T19:49:58.916Z,5.53
2019-05-05T19:52:27.591Z,5.83
2019-05-05T19:54:56.281Z,6.28
2019-05-05T19:57:24.946Z,5.70
2019-05-05T19:59:54.273Z,8.25
2019-05-05T20:02:23.666Z,6.90
2019-05-05T20:04:53.665Z,7.83
2019-05-05T20:07:24.666Z,6.45
2019-05-05T20:09:54.337Z,7.60
2019-05-05T20:12:23.134Z,9.10
2019-05-05T20:14:51.787Z,7.30
2019-05-05T20:17:39.515Z,7.33
2019-05-05T20:20:09.210Z,8.15
2019-05-05T20:22:37.875Z,8.03
2019-05-05T20:25:07.931Z,7.55
2019-05-05T20:27:36.590Z,7.78
2019-05-05T20:30:06.569Z,8.00
2019-05-05T20:32:44.463Z,8.15
2019-05-05T20:35:24.064Z,10.53
2019-05-05T20:37:57.803Z,8.75
2019-05-05T20:40:29.787Z,8.68
2019-05-05T20:42:58.449Z,9.45
2019-05-05T20:45:29.325Z,9.90
2019-05-05T20:47:58.363Z,9.78
2019-05-05T20:50:27.033Z,10.13
2019-05-05T20:52:55.719Z,9.78
2019-05-05T20:55:25.886Z,9.85
2019-05-05T20:57:54.816Z,9.75
2019-05-05T21:00:24.695Z,10.20
2019-05-05T21:02:53.883Z,9.20
2019-05-05T21:05:24.160Z,10.00
2019-05-05T21:07:52.970Z,10.08
2019-05-05T21:10:23.987Z,10.80
2019-05-05T21:12:54.230Z,10.85
2019-05-05T21:15:24.487Z,13.05
2019-05-05T21:17:54.097Z,14.93
2019-05-05T21:20:24.122Z,16.17
2019-05-05T21:22:58.366Z,13.98
2019-05-05T21:25:35.288Z,12.45
2019-05-05T21:28:04.091Z,12.35
2019-05-05T21:30:33.688Z,16.55
2019-05-05T21:33:04.471Z,13.45
2019-05-05T21:35:34.912Z,11.30
2019-05-05T21:38:04.719Z,10.05
2019-05-05T21:40:34.642Z,12.13
2019-05-05T21:43:04.980Z,10.13
2019-05-05T21:45:34.665Z,10.13
2019-05-05T21:48:04.314Z,10.30
2019-05-05T21:50:38.564Z,8.00
2019-05-05T21:53:24.505Z,9.33
2019-05-05T21:56:27.182Z,7.08
2019-05-05T21:58:56.924Z,8.60
2019-05-05T22:01:27.877Z,8.00
2019-05-05T22:03:56.990Z,8.00
2019-05-05T22:06:25.792Z,7.30
2019-05-05T22:08:54.448Z,7.28
2019-05-05T22:11:24.275Z,8.23
2019-05-05T22:13:54.051Z,9.68
2019-05-05T22:16:22.947Z,8.60
2019-05-05T22:18:53.968Z,9.43
2019-05-05T22:21:28.457Z,8.73
2019-05-05T22:24:16.778Z,7.75
2019-05-05T22:26:45.964Z,9.90
2019-05-05T22:29:16.923Z,8.75
2019-05-05T22:31:45.333Z,9.60
2019-05-05T22:34:14.711Z,8.85
2019-05-05T22:36:44.883Z,8.85
2019-05-05T22:39:16.520Z,8.40
2019-05-05T22:41:44.679Z,8.68
2019-05-05T22:44:14.005Z,8.25
2019-05-05T22:46:43.005Z,7.17
2019-05-05T22:49:11.829Z,6.22
2019-05-05T22:51:40.577Z,6.78
2019-05-05T22:54:09.605Z,6.12
2019-05-05T22:56:38.365Z,9.38
2019-05-05T22:59:07.417Z,6.75
2019-05-05T23:01:36.082Z,7.08
2019-05-05T23:04:19.548Z,5.30
2019-05-05T23:09:20.102Z,5.80
2019-05-05T23:11:48.793Z,6.60
2019-05-05T23:14:29.793Z,7.75
2019-05-05T23:17:08.687Z,7.47
2019-05-05T23:19:44.486Z,6.62
2019-05-05T23:22:24.059Z,6.05
2019-05-05T23:24:57.936Z,6.62
2019-05-05T23:27:46.845Z,6.75
2019-05-05T23:30:16.126Z,6.67
2019-05-05T23:32:45.031Z,6.28
2019-05-05T23:35:14.316Z,5.75
2019-05-05T23:37:44.849Z,6.12
2019-05-05T23:40:20.673Z,6.60
2019-05-05T23:42:49.401Z,7.42
2019-05-05T23:45:18.460Z,6.53
2019-05-05T23:47:47.321Z,6.50
2019-05-05T23:50:16.128Z,6.58
2019-05-05T23:52:44.838Z,7.10
2019-05-05T23:55:14.325Z,7.15
2019-05-05T23:57:43.727Z,7.42
